sensor_id;sensor_type;location;lat;lon;timestamp;P1;durP1;ratioP1;P2;durP2;ratioP2
26253;SDS011;53339;51.378;0.094;2023-08-20T00:01:56;7.70;;;3.45;;
26253;SDS011;53339;51.378;0.094;2023-08-20T00:04:26;7.75;;;1.27;;
26253;SDS011;53339;51.378;0.094;2023-08-20T00:06:58;8.93;;;1.55;;
26253;SDS011;53339;51.378;0.094;2023-08-20T00:09:26;12.27;;;3.60;;
26253;SDS011;53339;51.378;0.094;2023-08-20T00:11:54;8.52;;;4.38;;
26253;SDS011;53339;51.378;0.094;2023-08-20T00:17:34;8.93;;;3.28;;
26253;SDS011;53339;51.378;0.094;2023-08-20T00:20:04;10.10;;;3.65;;
26253;SDS011;53339;51.378;0.094;2023-08-20T00:22:40;10.38;;;2.47;;
26253;SDS011;53339;51.378;0.094;2023-08-20T00:25:17;10.02;;;3.33;;
26253;SDS011;53339;51.378;0.094;2023-08-20T00:27:45;6.75;;;1.88;;
26253;SDS011;53339;51.378;0.094;2023-08-20T00:30:19;9.55;;;3.30;;
26253;SDS011;53339;51.378;0.094;2023-08-20T00:32:47;7.82;;;3.22;;
26253;SDS011;53339;51.378;0.094;2023-08-20T00:35:16;8.30;;;3.35;;
26253;SDS011;53339;51.378;0.094;2023-08-20T00:37:49;5.25;;;1.33;;
26253;SDS011;53339;51.378;0.094;2023-08-20T00:40:18;13.18;;;4.18;;
26253;SDS011;53339;51.378;0.094;2023-08-20T00:42:53;8.95;;;3.38;;
26253;SDS011;53339;51.378;0.094;2023-08-20T00:45:26;7.35;;;2.83;;
26253;SDS011;53339;51.378;0.094;2023-08-20T00:48:04;7.97;;;3.38;;
26253;SDS011;53339;51.378;0.094;2023-08-20T00:53:02;9.13;;;2.72;;
26253;SDS011;53339;51.378;0.094;2023-08-20T00:55:31;7.70;;;3.45;;
26253;SDS011;53339;51.378;0.094;2023-08-20T01:00:36;8.60;;;3.05;;
26253;SDS011;53339;51.378;0.094;2023-08-20T01:03:04;7.35;;;2.70;;
26253;SDS011;53339;51.378;0.094;2023-08-20T01:05:33;3.92;;;1.10;;
26253;SDS011;53339;51.378;0.094;2023-08-20T01:08:18;7.35;;;2.60;;
26253;SDS011;53339;51.378;0.094;2023-08-20T01:11:05;7.80;;;2.53;;
26253;SDS011;53339;51.378;0.094;2023-08-20T01:13:40;8.45;;;3.28;;
26253;SDS011;53339;51.378;0.094;2023-08-20T01:16:08;4.95;;;3.55;;
26253;SDS011;53339;51.378;0.094;2023-08-20T01:18:38;5.72;;;3.03;;
26253;SDS011;53339;51.378;0.094;2023-08-20T01:21:11;6.80;;;3.10;;
26253;SDS011;53339;51.378;0.094;2023-08-20T01:29:33;5.28;;;3.13;;
26253;SDS011;53339;51.378;0.094;2023-08-20T01:32:03;7.75;;;2.90;;
26253;SDS011;53339;51.378;0.094;2023-08-20T01:34:34;9.27;;;3.38;;
26253;SDS011;53339;51.378;0.094;2023-08-20T01:37:03;6.68;;;2.80;;
26253;SDS011;53339;51.378;0.094;2023-08-20T01:39:36;8.15;;;3.58;;
26253;SDS011;53339;51.378;0.094;2023-08-20T01:42:05;8.02;;;3.17;;
26253;SDS011;53339;51.378;0.094;2023-08-20T01:47:03;6.80;;;3.80;;
26253;SDS011;53339;51.378;0.094;2023-08-20T01:49:32;5.53;;;3.33;;
26253;SDS011;53339;51.378;0.094;2023-08-20T01:52:04;8.10;;;4.75;;
26253;SDS011;53339;51.378;0.094;2023-08-20T01:54:32;8.25;;;4.38;;
26253;SDS011;53339;51.378;0.094;2023-08-20T01:57:01;9.90;;;3.05;;
26253;SDS011;53339;51.378;0.094;2023-08-20T01:59:29;10.27;;;4.80;;
26253;SDS011;53339;51.378;0.094;2023-08-20T02:01:57;12.40;;;4.60;;
26253;SDS011;53339;51.378;0.094;2023-08-20T02:04:29;8.00;;;4.95;;
26253;SDS011;53339;51.378;0.094;2023-08-20T02:07:00;10.98;;;4.03;;
26253;SDS011;53339;51.378;0.094;2023-08-20T02:09:33;9.02;;;4.78;;
26253;SDS011;53339;51.378;0.094;2023-08-20T02:12:04;14.85;;;4.85;;
26253;SDS011;53339;51.378;0.094;2023-08-20T02:14:38;12.02;;;3.20;;
26253;SDS011;53339;51.378;0.094;2023-08-20T02:17:07;15.93;;;5.60;;
26253;SDS011;53339;51.378;0.094;2023-08-20T02:19:35;13.30;;;5.93;;
26253;SDS011;53339;51.378;0.094;2023-08-20T02:22:07;11.30;;;5.18;;
26253;SDS011;53339;51.378;0.094;2023-08-20T02:24:42;11.15;;;5.35;;
26253;SDS011;53339;51.378;0.094;2023-08-20T02:27:10;14.43;;;5.90;;
26253;SDS011;53339;51.378;0.094;2023-08-20T02:29:38;11.70;;;5.38;;
26253;SDS011;53339;51.378;0.094;2023-08-20T02:32:06;16.70;;;4.38;;
26253;SDS011;53339;51.378;0.094;2023-08-20T02:34:38;12.85;;;5.13;;
26253;SDS011;53339;51.378;0.094;2023-08-20T02:37:06;19.23;;;5.45;;
26253;SDS011;53339;51.378;0.094;2023-08-20T02:39:36;15.80;;;5.25;;
26253;SDS011;53339;51.378;0.094;2023-08-20T02:42:08;11.40;;;3.40;;
26253;SDS011;53339;51.378;0.094;2023-08-20T02:44:37;16.00;;;5.90;;
26253;SDS011;53339;51.378;0.094;2023-08-20T02:47:05;11.80;;;4.03;;
26253;SDS011;53339;51.378;0.094;2023-08-20T02:49:34;16.58;;;6.25;;
26253;SDS011;53339;51.378;0.094;2023-08-20T02:52:04;13.10;;;6.63;;
26253;SDS011;53339;51.378;0.094;2023-08-20T02:54:33;11.35;;;5.43;;
26253;SDS011;53339;51.378;0.094;2023-08-20T02:57:01;9.35;;;5.65;;
26253;SDS011;53339;51.378;0.094;2023-08-20T02:59:30;9.57;;;3.75;;
26253;SDS011;53339;51.378;0.094;2023-08-20T03:01:58;9.65;;;4.07;;
26253;SDS011;53339;51.378;0.094;2023-08-20T03:04:36;16.48;;;5.50;;
26253;SDS011;53339;51.378;0.094;2023-08-20T03:07:04;10.60;;;4.78;;
26253;SDS011;53339;51.378;0.094;2023-08-20T03:09:34;12.50;;;5.32;;
26253;SDS011;53339;51.378;0.094;2023-08-20T03:12:02;15.32;;;6.57;;
26253;SDS011;53339;51.378;0.094;2023-08-20T03:14:31;13.32;;;5.88;;
26253;SDS011;53339;51.378;0.094;2023-08-20T03:17:00;14.15;;;6.97;;
26253;SDS011;53339;51.378;0.094;2023-08-20T03:19:32;11.32;;;4.88;;
26253;SDS011;53339;51.378;0.094;2023-08-20T03:22:05;13.82;;;4.50;;
26253;SDS011;53339;51.378;0.094;2023-08-20T03:24:33;15.73;;;5.20;;
26253;SDS011;53339;51.378;0.094;2023-08-20T03:27:04;13.98;;;5.65;;
26253;SDS011;53339;51.378;0.094;2023-08-20T03:29:32;12.68;;;5.70;;
26253;SDS011;53339;51.378;0.094;2023-08-20T03:32:01;13.23;;;5.57;;
26253;SDS011;53339;51.378;0.094;2023-08-20T03:34:30;17.42;;;5.00;;
26253;SDS011;53339;51.378;0.094;2023-08-20T03:36:58;15.52;;;5.50;;
26253;SDS011;53339;51.378;0.094;2023-08-20T03:39:26;12.32;;;5.85;;
26253;SDS011;53339;51.378;0.094;2023-08-20T03:41:54;10.75;;;4.53;;
26253;SDS011;53339;51.378;0.094;2023-08-20T03:44:23;15.63;;;5.68;;
26253;SDS011;53339;51.378;0.094;2023-08-20T03:46:56;16.40;;;7.35;;
26253;SDS011;53339;51.378;0.094;2023-08-20T03:49:26;13.02;;;5.78;;
26253;SDS011;53339;51.378;0.094;2023-08-20T03:51:54;12.40;;;3.60;;
26253;SDS011;53339;51.378;0.094;2023-08-20T03:54:23;14.80;;;5.30;;
26253;SDS011;53339;51.378;0.094;2023-08-20T03:56:51;11.57;;;6.03;;
26253;SDS011;53339;51.378;0.094;2023-08-20T03:59:27;14.15;;;5.18;;
26253;SDS011;53339;51.378;0.094;2023-08-20T04:01:55;11.35;;;3.60;;
26253;SDS011;53339;51.378;0.094;2023-08-20T04:04:25;13.68;;;5.85;;
26253;SDS011;53339;51.378;0.094;2023-08-20T04:06:54;10.75;;;6.45;;
26253;SDS011;53339;51.378;0.094;2023-08-20T04:09:25;10.88;;;4.60;;
26253;SDS011;53339;51.378;0.094;2023-08-20T04:11:58;17.40;;;6.25;;
26253;SDS011;53339;51.378;0.094;2023-08-20T04:14:28;12.65;;;5.57;;
26253;SDS011;53339;51.378;0.094;2023-08-20T04:17:01;14.90;;;6.28;;
26253;SDS011;53339;51.378;0.094;2023-08-20T04:19:32;14.50;;;6.93;;
26253;SDS011;53339;51.378;0.094;2023-08-20T04:22:00;18.05;;;7.75;;
26253;SDS011;53339;51.378;0.094;2023-08-20T04:24:28;12.60;;;6.18;;
26253;SDS011;53339;51.378;0.094;2023-08-20T04:26:56;14.23;;;7.38;;
26253;SDS011;53339;51.378;0.094;2023-08-20T04:29:27;15.55;;;7.03;;
26253;SDS011;53339;51.378;0.094;2023-08-20T04:31:55;15.32;;;7.13;;
26253;SDS011;53339;51.378;0.094;2023-08-20T04:34:23;15.48;;;7.07;;
26253;SDS011;53339;51.378;0.094;2023-08-20T04:36:53;16.73;;;7.90;;
26253;SDS011;53339;51.378;0.094;2023-08-20T04:39:21;17.10;;;6.22;;
26253;SDS011;53339;51.378;0.094;2023-08-20T04:41:52;16.52;;;6.90;;
26253;SDS011;53339;51.378;0.094;2023-08-20T04:44:22;15.88;;;7.13;;
26253;SDS011;53339;51.378;0.094;2023-08-20T04:46:53;15.27;;;6.43;;
26253;SDS011;53339;51.378;0.094;2023-08-20T04:49:22;13.32;;;5.30;;
26253;SDS011;53339;51.378;0.094;2023-08-20T04:51:53;16.85;;;6.35;;
26253;SDS011;53339;51.378;0.094;2023-08-20T04:54:20;12.82;;;8.15;;
26253;SDS011;53339;51.378;0.094;2023-08-20T04:56:48;17.08;;;7.40;;
26253;SDS011;53339;51.378;0.094;2023-08-20T04:59:18;17.60;;;8.35;;
26253;SDS011;53339;51.378;0.094;2023-08-20T05:02:08;14.95;;;6.20;;
26253;SDS011;53339;51.378;0.094;2023-08-20T05:04:53;16.27;;;6.90;;
26253;SDS011;53339;51.378;0.094;2023-08-20T05:07:23;13.05;;;7.40;;
26253;SDS011;53339;51.378;0.094;2023-08-20T05:09:52;12.02;;;6.32;;
26253;SDS011;53339;51.378;0.094;2023-08-20T05:12:20;11.65;;;6.15;;
26253;SDS011;53339;51.378;0.094;2023-08-20T05:14:52;15.57;;;5.82;;
26253;SDS011;53339;51.378;0.094;2023-08-20T05:17:20;15.57;;;5.65;;
26253;SDS011;53339;51.378;0.094;2023-08-20T05:19:50;11.50;;;5.55;;
26253;SDS011;53339;51.378;0.094;2023-08-20T05:22:21;15.55;;;4.93;;
26253;SDS011;53339;51.378;0.094;2023-08-20T05:24:50;13.82;;;6.22;;
26253;SDS011;53339;51.378;0.094;2023-08-20T05:27:26;12.88;;;5.28;;
26253;SDS011;53339;51.378;0.094;2023-08-20T05:30:05;10.10;;;2.95;;
26253;SDS011;53339;51.378;0.094;2023-08-20T05:32:35;10.48;;;4.75;;
26253;SDS011;53339;51.378;0.094;2023-08-20T05:35:08;11.38;;;4.82;;
26253;SDS011;53339;51.378;0.094;2023-08-20T05:37:38;11.68;;;5.13;;
26253;SDS011;53339;51.378;0.094;2023-08-20T05:40:06;10.18;;;4.47;;
26253;SDS011;53339;51.378;0.094;2023-08-20T05:42:37;13.57;;;3.20;;
26253;SDS011;53339;51.378;0.094;2023-08-20T05:47:34;10.88;;;4.75;;
26253;SDS011;53339;51.378;0.094;2023-08-20T05:50:06;11.40;;;4.32;;
26253;SDS011;53339;51.378;0.094;2023-08-20T05:52:34;11.45;;;5.03;;
26253;SDS011;53339;51.378;0.094;2023-08-20T05:55:03;11.80;;;4.97;;
26253;SDS011;53339;51.378;0.094;2023-08-20T05:57:33;10.82;;;3.53;;
26253;SDS011;53339;51.378;0.094;2023-08-20T06:00:04;14.35;;;4.20;;
26253;SDS011;53339;51.378;0.094;2023-08-20T06:02:41;10.35;;;4.75;;
26253;SDS011;53339;51.378;0.094;2023-08-20T06:05:10;9.02;;;4.85;;
26253;SDS011;53339;51.378;0.094;2023-08-20T06:07:39;9.98;;;3.72;;
26253;SDS011;53339;51.378;0.094;2023-08-20T06:10:07;8.38;;;3.45;;
26253;SDS011;53339;51.378;0.094;2023-08-20T06:12:39;13.05;;;5.00;;
26253;SDS011;53339;51.378;0.094;2023-08-20T06:15:07;6.30;;;2.00;;
26253;SDS011;53339;51.378;0.094;2023-08-20T06:17:36;9.70;;;4.53;;
26253;SDS011;53339;51.378;0.094;2023-08-20T06:20:05;12.82;;;5.13;;
26253;SDS011;53339;51.378;0.094;2023-08-20T06:22:35;8.93;;;4.80;;
26253;SDS011;53339;51.378;0.094;2023-08-20T06:25:03;10.65;;;2.70;;
26253;SDS011;53339;51.378;0.094;2023-08-20T06:27:32;7.75;;;2.35;;
26253;SDS011;53339;51.378;0.094;2023-08-20T06:30:06;7.97;;;4.80;;
26253;SDS011;53339;51.378;0.094;2023-08-20T06:32:37;8.38;;;2.50;;
26253;SDS011;53339;51.378;0.094;2023-08-20T06:35:07;7.72;;;3.70;;
26253;SDS011;53339;51.378;0.094;2023-08-20T06:37:38;10.23;;;4.55;;
26253;SDS011;53339;51.378;0.094;2023-08-20T06:40:09;7.03;;;4.03;;
26253;SDS011;53339;51.378;0.094;2023-08-20T06:42:41;7.97;;;4.65;;
26253;SDS011;53339;51.378;0.094;2023-08-20T06:45:11;12.80;;;5.10;;
26253;SDS011;53339;51.378;0.094;2023-08-20T06:47:39;9.68;;;4.38;;
26253;SDS011;53339;51.378;0.094;2023-08-20T06:50:09;14.15;;;6.60;;
26253;SDS011;53339;51.378;0.094;2023-08-20T06:52:42;8.02;;;4.85;;
26253;SDS011;53339;51.378;0.094;2023-08-20T06:55:10;7.63;;;4.38;;
26253;SDS011;53339;51.378;0.094;2023-08-20T06:57:38;8.82;;;4.25;;
26253;SDS011;53339;51.378;0.094;2023-08-20T07:00:06;10.32;;;2.75;;
26253;SDS011;53339;51.378;0.094;2023-08-20T07:02:34;11.45;;;4.72;;
26253;SDS011;53339;51.378;0.094;2023-08-20T07:05:03;6.82;;;4.00;;
26253;SDS011;53339;51.378;0.094;2023-08-20T07:07:32;12.68;;;4.30;;
26253;SDS011;53339;51.378;0.094;2023-08-20T07:10:00;6.60;;;3.45;;
26253;SDS011;53339;51.378;0.094;2023-08-20T07:12:30;8.38;;;3.63;;
26253;SDS011;53339;51.378;0.094;2023-08-20T07:15:07;5.18;;;2.97;;
26253;SDS011;53339;51.378;0.094;2023-08-20T07:17:36;6.53;;;3.38;;
26253;SDS011;53339;51.378;0.094;2023-08-20T07:20:07;7.30;;;4.00;;
26253;SDS011;53339;51.378;0.094;2023-08-20T07:22:38;8.55;;;2.85;;
26253;SDS011;53339;51.378;0.094;2023-08-20T07:25:06;12.50;;;3.97;;
26253;SDS011;53339;51.378;0.094;2023-08-20T07:27:41;8.20;;;2.55;;
26253;SDS011;53339;51.378;0.094;2023-08-20T07:30:10;5.65;;;2.55;;
26253;SDS011;53339;51.378;0.094;2023-08-20T07:32:39;10.55;;;3.30;;
26253;SDS011;53339;51.378;0.094;2023-08-20T07:35:10;7.85;;;3.15;;
26253;SDS011;53339;51.378;0.094;2023-08-20T07:37:38;8.20;;;2.95;;
26253;SDS011;53339;51.378;0.094;2023-08-20T07:40:15;7.35;;;2.85;;
26253;SDS011;53339;51.378;0.094;2023-08-20T07:42:43;6.45;;;1.42;;
26253;SDS011;53339;51.378;0.094;2023-08-20T07:45:11;6.82;;;2.63;;
26253;SDS011;53339;51.378;0.094;2023-08-20T07:47:40;5.15;;;2.85;;
26253;SDS011;53339;51.378;0.094;2023-08-20T07:50:08;7.45;;;3.05;;
26253;SDS011;53339;51.378;0.094;2023-08-20T07:52:36;8.02;;;3.40;;
26253;SDS011;53339;51.378;0.094;2023-08-20T07:55:04;10.52;;;3.15;;
26253;SDS011;53339;51.378;0.094;2023-08-20T07:57:33;9.68;;;3.60;;
26253;SDS011;53339;51.378;0.094;2023-08-20T08:00:07;7.70;;;3.10;;
26253;SDS011;53339;51.378;0.094;2023-08-20T08:02:40;9.70;;;2.85;;
26253;SDS011;53339;51.378;0.094;2023-08-20T08:05:13;7.28;;;3.53;;
26253;SDS011;53339;51.378;0.094;2023-08-20T08:07:41;7.35;;;2.72;;
26253;SDS011;53339;51.378;0.094;2023-08-20T08:10:10;6.70;;;2.42;;
26253;SDS011;53339;51.378;0.094;2023-08-20T08:12:41;9.20;;;3.67;;
26253;SDS011;53339;51.378;0.094;2023-08-20T08:15:08;3.22;;;1.30;;
26253;SDS011;53339;51.378;0.094;2023-08-20T08:17:36;5.55;;;3.45;;
26253;SDS011;53339;51.378;0.094;2023-08-20T08:20:05;6.85;;;3.35;;
26253;SDS011;53339;51.378;0.094;2023-08-20T08:22:35;5.30;;;3.35;;
26253;SDS011;53339;51.378;0.094;2023-08-20T08:25:03;8.57;;;2.83;;
26253;SDS011;53339;51.378;0.094;2023-08-20T08:27:33;8.75;;;3.80;;
26253;SDS011;53339;51.378;0.094;2023-08-20T08:30:09;6.85;;;3.40;;
26253;SDS011;53339;51.378;0.094;2023-08-20T08:32:48;4.45;;;1.48;;
26253;SDS011;53339;51.378;0.094;2023-08-20T08:35:16;5.25;;;3.42;;
26253;SDS011;53339;51.378;0.094;2023-08-20T08:37:46;7.82;;;3.65;;
26253;SDS011;53339;51.378;0.094;2023-08-20T08:40:13;4.82;;;2.80;;
26253;SDS011;53339;51.378;0.094;2023-08-20T08:42:49;6.65;;;2.92;;
26253;SDS011;53339;51.378;0.094;2023-08-20T08:45:22;8.07;;;3.15;;
26253;SDS011;53339;51.378;0.094;2023-08-20T08:47:50;7.15;;;2.83;;
26253;SDS011;53339;51.378;0.094;2023-08-20T08:50:20;4.50;;;2.50;;
26253;SDS011;53339;51.378;0.094;2023-08-20T08:52:48;4.53;;;1.17;;
26253;SDS011;53339;51.378;0.094;2023-08-20T08:55:23;4.60;;;1.60;;
26253;SDS011;53339;51.378;0.094;2023-08-20T08:57:51;6.13;;;2.92;;
26253;SDS011;53339;51.378;0.094;2023-08-20T09:00:18;7.68;;;3.10;;
26253;SDS011;53339;51.378;0.094;2023-08-20T09:02:50;4.30;;;1.20;;
26253;SDS011;53339;51.378;0.094;2023-08-20T09:05:26;5.55;;;2.95;;
26253;SDS011;53339;51.378;0.094;2023-08-20T09:07:57;6.72;;;3.28;;
26253;SDS011;53339;51.378;0.094;2023-08-20T09:10:26;5.43;;;2.60;;
26253;SDS011;53339;51.378;0.094;2023-08-20T09:12:56;7.03;;;1.67;;
26253;SDS011;53339;51.378;0.094;2023-08-20T09:15:31;5.78;;;2.38;;
26253;SDS011;53339;51.378;0.094;2023-08-20T09:18:04;11.10;;;3.28;;
26253;SDS011;53339;51.378;0.094;2023-08-20T09:20:41;5.53;;;1.00;;
26253;SDS011;53339;51.378;0.094;2023-08-20T09:23:13;7.38;;;3.13;;
26253;SDS011;53339;51.378;0.094;2023-08-20T09:25:42;5.03;;;1.30;;
26253;SDS011;53339;51.378;0.094;2023-08-20T09:28:14;5.05;;;2.50;;
26253;SDS011;53339;51.378;0.094;2023-08-20T09:30:58;6.82;;;3.35;;
26253;SDS011;53339;51.378;0.094;2023-08-20T09:33:36;6.22;;;2.92;;
26253;SDS011;53339;51.378;0.094;2023-08-20T09:36:34;4.25;;;2.60;;
26253;SDS011;53339;51.378;0.094;2023-08-20T09:39:10;5.10;;;2.10;;
26253;SDS011;53339;51.378;0.094;2023-08-20T09:41:39;4.75;;;2.60;;
26253;SDS011;53339;51.378;0.094;2023-08-20T09:44:07;5.78;;;2.92;;
26253;SDS011;53339;51.378;0.094;2023-08-20T09:46:35;7.22;;;3.22;;
26253;SDS011;53339;51.378;0.094;2023-08-20T09:49:05;6.78;;;3.25;;
26253;SDS011;53339;51.378;0.094;2023-08-20T09:51:52;4.13;;;2.45;;
26253;SDS011;53339;51.378;0.094;2023-08-20T09:54:28;4.32;;;2.28;;
26253;SDS011;53339;51.378;0.094;2023-08-20T09:57:40;4.18;;;3.00;;
26253;SDS011;53339;51.378;0.094;2023-08-20T10:00:22;2.65;;;2.33;;
26253;SDS011;53339;51.378;0.094;2023-08-20T10:02:54;7.35;;;1.60;;
26253;SDS011;53339;51.378;0.094;2023-08-20T10:05:31;8.13;;;2.80;;
26253;SDS011;53339;51.378;0.094;2023-08-20T10:08:00;4.97;;;2.03;;
26253;SDS011;53339;51.378;0.094;2023-08-20T10:10:32;7.97;;;2.80;;
26253;SDS011;53339;51.378;0.094;2023-08-20T10:13:05;4.38;;;2.90;;
26253;SDS011;53339;51.378;0.094;2023-08-20T10:15:33;7.15;;;2.28;;
26253;SDS011;53339;51.378;0.094;2023-08-20T10:20:38;4.35;;;2.40;;
26253;SDS011;53339;51.378;0.094;2023-08-20T10:23:09;6.15;;;3.10;;
26253;SDS011;53339;51.378;0.094;2023-08-20T10:25:40;6.20;;;1.38;;
26253;SDS011;53339;51.378;0.094;2023-08-20T10:28:12;6.07;;;2.38;;
26253;SDS011;53339;51.378;0.094;2023-08-20T10:36:17;6.97;;;2.33;;
26253;SDS011;53339;51.378;0.094;2023-08-20T10:38:52;7.07;;;1.90;;
26253;SDS011;53339;51.378;0.094;2023-08-20T10:41:27;7.10;;;2.47;;
26253;SDS011;53339;51.378;0.094;2023-08-20T10:43:58;3.90;;;2.38;;
26253;SDS011;53339;51.378;0.094;2023-08-20T10:46:36;5.40;;;3.30;;
26253;SDS011;53339;51.378;0.094;2023-08-20T10:49:20;5.72;;;2.05;;
26253;SDS011;53339;51.378;0.094;2023-08-20T10:51:54;8.05;;;2.83;;
26253;SDS011;53339;51.378;0.094;2023-08-20T10:54:34;3.15;;;1.85;;
26253;SDS011;53339;51.378;0.094;2023-08-20T10:57:05;6.95;;;2.35;;
26253;SDS011;53339;51.378;0.094;2023-08-20T10:59:34;5.03;;;2.70;;
26253;SDS011;53339;51.378;0.094;2023-08-20T11:02:14;7.63;;;2.15;;
26253;SDS011;53339;51.378;0.094;2023-08-20T11:04:44;4.90;;;1.80;;
26253;SDS011;53339;51.378;0.094;2023-08-20T11:07:18;4.80;;;2.30;;
26253;SDS011;53339;51.378;0.094;2023-08-20T11:09:47;3.38;;;2.10;;
26253;SDS011;53339;51.378;0.094;2023-08-20T11:12:23;7.10;;;2.72;;
26253;SDS011;53339;51.378;0.094;2023-08-20T11:14:59;4.30;;;2.10;;
26253;SDS011;53339;51.378;0.094;2023-08-20T11:17:33;3.00;;;2.10;;
26253;SDS011;53339;51.378;0.094;2023-08-20T11:20:03;2.85;;;1.67;;
26253;SDS011;53339;51.378;0.094;2023-08-20T11:22:38;5.82;;;1.90;;
26253;SDS011;53339;51.378;0.094;2023-08-20T11:25:11;3.53;;;1.75;;
26253;SDS011;53339;51.378;0.094;2023-08-20T11:27:43;3.00;;;2.30;;
26253;SDS011;53339;51.378;0.094;2023-08-20T11:30:11;4.50;;;2.28;;
26253;SDS011;53339;51.378;0.094;2023-08-20T11:32:40;4.05;;;2.25;;
26253;SDS011;53339;51.378;0.094;2023-08-20T11:35:14;3.15;;;2.40;;
26253;SDS011;53339;51.378;0.094;2023-08-20T11:37:42;3.78;;;1.67;;
26253;SDS011;53339;51.378;0.094;2023-08-20T11:40:10;6.65;;;2.10;;
26253;SDS011;53339;51.378;0.094;2023-08-20T11:42:45;3.00;;;1.90;;
26253;SDS011;53339;51.378;0.094;2023-08-20T11:45:13;3.63;;;1.88;;
26253;SDS011;53339;51.378;0.094;2023-08-20T11:47:57;3.00;;;0.77;;
26253;SDS011;53339;51.378;0.094;2023-08-20T11:50:29;4.50;;;2.17;;
26253;SDS011;53339;51.378;0.094;2023-08-20T11:53:01;3.75;;;2.08;;
26253;SDS011;53339;51.378;0.094;2023-08-20T11:55:37;2.95;;;2.13;;
26253;SDS011;53339;51.378;0.094;2023-08-20T11:58:10;5.80;;;2.10;;
26253;SDS011;53339;51.378;0.094;2023-08-20T12:00:42;8.40;;;2.58;;
26253;SDS011;53339;51.378;0.094;2023-08-20T12:03:10;2.58;;;1.83;;
26253;SDS011;53339;51.378;0.094;2023-08-20T12:05:43;3.78;;;2.05;;
26253;SDS011;53339;51.378;0.094;2023-08-20T12:08:15;3.83;;;1.02;;
26253;SDS011;53339;51.378;0.094;2023-08-20T12:10:57;3.58;;;2.13;;
26253;SDS011;53339;51.378;0.094;2023-08-20T12:13:26;7.00;;;2.88;;
26253;SDS011;53339;51.378;0.094;2023-08-20T12:16:06;3.70;;;1.15;;
26253;SDS011;53339;51.378;0.094;2023-08-20T12:18:34;3.60;;;2.45;;
26253;SDS011;53339;51.378;0.094;2023-08-20T12:21:02;3.40;;;2.33;;
26253;SDS011;53339;51.378;0.094;2023-08-20T12:23:30;4.90;;;2.10;;
26253;SDS011;53339;51.378;0.094;2023-08-20T12:26:00;3.30;;;3.00;;
26253;SDS011;53339;51.378;0.094;2023-08-20T12:28:32;4.88;;;1.88;;
26253;SDS011;53339;51.378;0.094;2023-08-20T12:31:02;3.33;;;2.03;;
26253;SDS011;53339;51.378;0.094;2023-08-20T12:33:30;4.00;;;2.22;;
26253;SDS011;53339;51.378;0.094;2023-08-20T12:36:09;3.60;;;2.53;;
26253;SDS011;53339;51.378;0.094;2023-08-20T12:38:39;4.25;;;2.35;;
26253;SDS011;53339;51.378;0.094;2023-08-20T12:41:14;5.60;;;2.60;;
26253;SDS011;53339;51.378;0.094;2023-08-20T12:43:46;3.75;;;1.73;;
26253;SDS011;53339;51.378;0.094;2023-08-20T12:46:16;3.53;;;2.50;;
26253;SDS011;53339;51.378;0.094;2023-08-20T12:48:46;4.75;;;2.38;;
26253;SDS011;53339;51.378;0.094;2023-08-20T12:51:17;3.40;;;2.45;;
26253;SDS011;53339;51.378;0.094;2023-08-20T12:53:45;3.67;;;1.98;;
26253;SDS011;53339;51.378;0.094;2023-08-20T12:56:14;5.53;;;2.55;;
26253;SDS011;53339;51.378;0.094;2023-08-20T12:58:43;4.88;;;1.85;;
26253;SDS011;53339;51.378;0.094;2023-08-20T13:01:11;4.78;;;2.58;;
26253;SDS011;53339;51.378;0.094;2023-08-20T13:03:39;3.65;;;1.92;;
26253;SDS011;53339;51.378;0.094;2023-08-20T13:06:10;4.13;;;2.60;;
26253;SDS011;53339;51.378;0.094;2023-08-20T13:08:42;5.10;;;2.25;;
26253;SDS011;53339;51.378;0.094;2023-08-20T13:11:16;5.70;;;3.10;;
26253;SDS011;53339;51.378;0.094;2023-08-20T13:13:45;4.97;;;2.00;;
26253;SDS011;53339;51.378;0.094;2023-08-20T13:16:14;6.47;;;2.45;;
26253;SDS011;53339;51.378;0.094;2023-08-20T13:18:44;5.50;;;2.50;;
26253;SDS011;53339;51.378;0.094;2023-08-20T13:21:15;3.70;;;2.08;;
26253;SDS011;53339;51.378;0.094;2023-08-20T13:23:43;4.28;;;0.98;;
26253;SDS011;53339;51.378;0.094;2023-08-20T13:26:21;4.75;;;1.92;;
26253;SDS011;53339;51.378;0.094;2023-08-20T13:28:49;3.33;;;1.77;;
26253;SDS011;53339;51.378;0.094;2023-08-20T13:31:17;2.95;;;1.45;;
26253;SDS011;53339;51.378;0.094;2023-08-20T13:33:49;3.85;;;2.10;;
26253;SDS011;53339;51.378;0.094;2023-08-20T13:36:26;3.50;;;1.52;;
26253;SDS011;53339;51.378;0.094;2023-08-20T13:38:54;3.50;;;1.70;;
26253;SDS011;53339;51.378;0.094;2023-08-20T13:41:26;4.30;;;1.42;;
26253;SDS011;53339;51.378;0.094;2023-08-20T13:43:54;3.25;;;1.00;;
26253;SDS011;53339;51.378;0.094;2023-08-20T13:46:22;3.92;;;1.80;;
26253;SDS011;53339;51.378;0.094;2023-08-20T13:48:50;3.90;;;1.52;;
26253;SDS011;53339;51.378;0.094;2023-08-20T13:51:22;3.85;;;1.67;;
26253;SDS011;53339;51.378;0.094;2023-08-20T13:53:50;3.03;;;0.85;;
26253;SDS011;53339;51.378;0.094;2023-08-20T13:56:21;3.40;;;1.98;;
26253;SDS011;53339;51.378;0.094;2023-08-20T13:58:52;3.72;;;2.03;;
26253;SDS011;53339;51.378;0.094;2023-08-20T14:01:26;4.18;;;1.70;;
26253;SDS011;53339;51.378;0.094;2023-08-20T14:03:59;4.45;;;1.55;;
26253;SDS011;53339;51.378;0.094;2023-08-20T14:08:56;2.47;;;1.55;;
26253;SDS011;53339;51.378;0.094;2023-08-20T14:11:27;4.22;;;1.77;;
26253;SDS011;53339;51.378;0.094;2023-08-20T14:13:55;3.88;;;1.40;;
26253;SDS011;53339;51.378;0.094;2023-08-20T14:16:23;3.47;;;1.65;;
26253;SDS011;53339;51.378;0.094;2023-08-20T14:18:51;3.15;;;1.10;;
26253;SDS011;53339;51.378;0.094;2023-08-20T14:21:22;3.33;;;1.02;;
26253;SDS011;53339;51.378;0.094;2023-08-20T14:23:50;3.15;;;0.80;;
26253;SDS011;53339;51.378;0.094;2023-08-20T14:26:23;5.47;;;1.50;;
26253;SDS011;53339;51.378;0.094;2023-08-20T14:28:55;3.63;;;1.60;;
26253;SDS011;53339;51.378;0.094;2023-08-20T14:31:23;3.67;;;1.70;;
26253;SDS011;53339;51.378;0.094;2023-08-20T14:33:50;6.07;;;1.83;;
26253;SDS011;53339;51.378;0.094;2023-08-20T14:36:18;4.25;;;1.65;;
26253;SDS011;53339;51.378;0.094;2023-08-20T14:38:55;2.83;;;1.40;;
26253;SDS011;53339;51.378;0.094;2023-08-20T14:41:28;5.57;;;1.88;;
26253;SDS011;53339;51.378;0.094;2023-08-20T14:43:58;3.50;;;1.40;;
26253;SDS011;53339;51.378;0.094;2023-08-20T14:46:30;4.75;;;1.30;;
26253;SDS011;53339;51.378;0.094;2023-08-20T14:49:06;4.28;;;1.55;;
26253;SDS011;53339;51.378;0.094;2023-08-20T14:51:36;3.15;;;1.10;;
26253;SDS011;53339;51.378;0.094;2023-08-20T14:54:04;3.90;;;1.95;;
26253;SDS011;53339;51.378;0.094;2023-08-20T14:56:33;3.75;;;1.67;;
26253;SDS011;53339;51.378;0.094;2023-08-20T14:59:05;3.78;;;1.67;;
26253;SDS011;53339;51.378;0.094;2023-08-20T15:06:37;2.97;;;1.40;;
26253;SDS011;53339;51.378;0.094;2023-08-20T15:09:07;4.57;;;1.73;;
26253;SDS011;53339;51.378;0.094;2023-08-20T15:11:44;3.75;;;1.38;;
26253;SDS011;53339;51.378;0.094;2023-08-20T15:14:12;3.30;;;1.92;;
26253;SDS011;53339;51.378;0.094;2023-08-20T15:16:39;3.28;;;1.50;;
26253;SDS011;53339;51.378;0.094;2023-08-20T15:19:12;3.75;;;1.85;;
26253;SDS011;53339;51.378;0.094;2023-08-20T15:21:41;5.00;;;2.47;;
26253;SDS011;53339;51.378;0.094;2023-08-20T15:24:09;4.05;;;1.52;;
26253;SDS011;53339;51.378;0.094;2023-08-20T15:26:37;2.55;;;1.95;;
26253;SDS011;53339;51.378;0.094;2023-08-20T15:29:14;4.82;;;2.17;;
26253;SDS011;53339;51.378;0.094;2023-08-20T15:31:50;2.72;;;1.95;;
26253;SDS011;53339;51.378;0.094;2023-08-20T15:34:22;2.17;;;1.52;;
26253;SDS011;53339;51.378;0.094;2023-08-20T15:36:51;5.97;;;1.95;;
26253;SDS011;53339;51.378;0.094;2023-08-20T15:39:19;6.10;;;2.25;;
26253;SDS011;53339;51.378;0.094;2023-08-20T15:41:49;5.53;;;2.10;;